sensor_id;sensor_type;location;lat;lon;timestamp;P1;durP1;ratioP1;P2;durP2;ratioP2
75847;SDS011;65750;47.540;19.090;2023-03-23T00:00:59;5.28;;;3.20;;
75847;SDS011;65750;47.540;19.090;2023-03-23T00:03:26;5.20;;;3.08;;
75847;SDS011;65750;47.540;19.090;2023-03-23T00:05:57;4.62;;;2.95;;
75847;SDS011;65750;47.540;19.090;2023-03-23T00:08:30;6.40;;;3.20;;
75847;SDS011;65750;47.540;19.090;2023-03-23T00:10:57;6.43;;;3.25;;
75847;SDS011;65750;47.540;19.090;2023-03-23T00:13:27;5.68;;;3.50;;
75847;SDS011;65750;47.540;19.090;2023-03-23T00:15:56;6.10;;;3.08;;
75847;SDS011;65750;47.540;19.090;2023-03-23T00:18:23;5.07;;;3.20;;
75847;SDS011;65750;47.540;19.090;2023-03-23T00:20:51;7.97;;;3.27;;
75847;SDS011;65750;47.540;19.090;2023-03-23T00:23:20;5.72;;;3.33;;
75847;SDS011;65750;47.540;19.090;2023-03-23T00:25:50;6.18;;;3.28;;
75847;SDS011;65750;47.540;19.090;2023-03-23T00:28:20;5.68;;;3.35;;
75847;SDS011;65750;47.540;19.090;2023-03-23T00:30:54;6.28;;;3.45;;
75847;SDS011;65750;47.540;19.090;2023-03-23T00:33:23;6.23;;;3.33;;
75847;SDS011;65750;47.540;19.090;2023-03-23T00:35:52;6.50;;;3.65;;
75847;SDS011;65750;47.540;19.090;2023-03-23T00:38:19;5.72;;;3.40;;
75847;SDS011;65750;47.540;19.090;2023-03-23T00:40:47;6.18;;;3.87;;
75847;SDS011;65750;47.540;19.090;2023-03-23T00:43:15;5.65;;;3.60;;
75847;SDS011;65750;47.540;19.090;2023-03-23T00:45:43;5.37;;;3.63;;
75847;SDS011;65750;47.540;19.090;2023-03-23T00:48:16;5.82;;;3.75;;
75847;SDS011;65750;47.540;19.090;2023-03-23T00:50:44;5.93;;;3.62;;
75847;SDS011;65750;47.540;19.090;2023-03-23T00:53:11;6.25;;;3.47;;
75847;SDS011;65750;47.540;19.090;2023-03-23T00:55:39;7.18;;;3.67;;
75847;SDS011;65750;47.540;19.090;2023-03-23T00:58:07;7.17;;;3.80;;
75847;SDS011;65750;47.540;19.090;2023-03-23T01:00:35;6.03;;;3.95;;
75847;SDS011;65750;47.540;19.090;2023-03-23T01:03:03;6.85;;;3.80;;
75847;SDS011;65750;47.540;19.090;2023-03-23T01:05:35;6.18;;;4.05;;
75847;SDS011;65750;47.540;19.090;2023-03-23T01:08:02;5.43;;;3.70;;
75847;SDS011;65750;47.540;19.090;2023-03-23T01:10:30;5.73;;;3.53;;
75847;SDS011;65750;47.540;19.090;2023-03-23T01:12:58;6.50;;;3.83;;
75847;SDS011;65750;47.540;19.090;2023-03-23T01:15:27;5.72;;;3.65;;
75847;SDS011;65750;47.540;19.090;2023-03-23T01:17:54;5.95;;;3.47;;
75847;SDS011;65750;47.540;19.090;2023-03-23T01:20:22;7.25;;;4.03;;
75847;SDS011;65750;47.540;19.090;2023-03-23T01:22:54;6.00;;;3.60;;
75847;SDS011;65750;47.540;19.090;2023-03-23T01:25:25;7.10;;;3.92;;
75847;SDS011;65750;47.540;19.090;2023-03-23T01:27:53;6.80;;;3.72;;
75847;SDS011;65750;47.540;19.090;2023-03-23T01:30:21;6.15;;;3.53;;
75847;SDS011;65750;47.540;19.090;2023-03-23T01:32:48;5.95;;;3.65;;
75847;SDS011;65750;47.540;19.090;2023-03-23T01:35:16;6.00;;;3.90;;
75847;SDS011;65750;47.540;19.090;2023-03-23T01:37:43;7.40;;;4.00;;
75847;SDS011;65750;47.540;19.090;2023-03-23T01:40:12;6.32;;;3.50;;
75847;SDS011;65750;47.540;19.090;2023-03-23T01:42:40;6.12;;;3.67;;
75847;SDS011;65750;47.540;19.090;2023-03-23T01:45:21;6.35;;;3.55;;
75847;SDS011;65750;47.540;19.090;2023-03-23T01:47:52;7.20;;;4.03;;
75847;SDS011;65750;47.540;19.090;2023-03-23T01:50:23;5.87;;;3.53;;
75847;SDS011;65750;47.540;19.090;2023-03-23T01:52:52;6.18;;;3.80;;
75847;SDS011;65750;47.540;19.090;2023-03-23T01:55:22;7.95;;;3.90;;
75847;SDS011;65750;47.540;19.090;2023-03-23T01:57:49;6.57;;;3.70;;
75847;SDS011;65750;47.540;19.090;2023-03-23T02:00:18;7.07;;;3.73;;
75847;SDS011;65750;47.540;19.090;2023-03-23T02:02:48;6.20;;;3.87;;
75847;SDS011;65750;47.540;19.090;2023-03-23T02:05:19;6.70;;;3.95;;
75847;SDS011;65750;47.540;19.090;2023-03-23T02:07:49;7.00;;;3.95;;
75847;SDS011;65750;47.540;19.090;2023-03-23T02:10:16;5.43;;;3.35;;
75847;SDS011;65750;47.540;19.090;2023-03-23T02:12:45;5.70;;;3.60;;
75847;SDS011;65750;47.540;19.090;2023-03-23T02:15:13;6.32;;;4.00;;
75847;SDS011;65750;47.540;19.090;2023-03-23T02:17:41;6.25;;;3.78;;
75847;SDS011;65750;47.540;19.090;2023-03-23T02:20:23;6.18;;;3.62;;
75847;SDS011;65750;47.540;19.090;2023-03-23T02:25:58;6.23;;;3.90;;
75847;SDS011;65750;47.540;19.090;2023-03-23T02:34:42;6.37;;;3.85;;
75847;SDS011;65750;47.540;19.090;2023-03-23T02:37:14;5.87;;;3.95;;
75847;SDS011;65750;47.540;19.090;2023-03-23T02:39:44;5.80;;;3.70;;
75847;SDS011;65750;47.540;19.090;2023-03-23T02:42:15;5.80;;;3.85;;
75847;SDS011;65750;47.540;19.090;2023-03-23T02:44:45;5.70;;;3.55;;
75847;SDS011;65750;47.540;19.090;2023-03-23T02:47:14;6.95;;;3.80;;
75847;SDS011;65750;47.540;19.090;2023-03-23T02:49:46;6.72;;;3.95;;
75847;SDS011;65750;47.540;19.090;2023-03-23T02:52:16;6.27;;;3.47;;
75847;SDS011;65750;47.540;19.090;2023-03-23T02:54:46;5.90;;;3.80;;
75847;SDS011;65750;47.540;19.090;2023-03-23T02:57:15;6.40;;;4.03;;
75847;SDS011;65750;47.540;19.090;2023-03-23T02:59:43;5.93;;;3.62;;
75847;SDS011;65750;47.540;19.090;2023-03-23T03:02:11;6.12;;;4.05;;
75847;SDS011;65750;47.540;19.090;2023-03-23T03:04:40;7.10;;;4.03;;
75847;SDS011;65750;47.540;19.090;2023-03-23T03:07:23;6.20;;;4.18;;
75847;SDS011;65750;47.540;19.090;2023-03-23T03:10:04;6.75;;;3.78;;
75847;SDS011;65750;47.540;19.090;2023-03-23T03:12:35;5.25;;;3.50;;
75847;SDS011;65750;47.540;19.090;2023-03-23T03:15:09;7.05;;;3.83;;
75847;SDS011;65750;47.540;19.090;2023-03-23T03:17:41;5.97;;;4.10;;
75847;SDS011;65750;47.540;19.090;2023-03-23T03:20:11;7.18;;;4.20;;
75847;SDS011;65750;47.540;19.090;2023-03-23T03:22:41;5.35;;;3.70;;
75847;SDS011;65750;47.540;19.090;2023-03-23T03:25:10;6.47;;;3.70;;
75847;SDS011;65750;47.540;19.090;2023-03-23T03:27:39;6.53;;;3.80;;
75847;SDS011;65750;47.540;19.090;2023-03-23T03:30:09;6.50;;;3.60;;
75847;SDS011;65750;47.540;19.090;2023-03-23T03:32:43;5.68;;;3.60;;
75847;SDS011;65750;47.540;19.090;2023-03-23T03:35:12;7.00;;;4.03;;
75847;SDS011;65750;47.540;19.090;2023-03-23T03:37:41;6.70;;;3.62;;
75847;SDS011;65750;47.540;19.090;2023-03-23T03:40:10;6.12;;;4.03;;
75847;SDS011;65750;47.540;19.090;2023-03-23T03:42:38;6.20;;;3.77;;
75847;SDS011;65750;47.540;19.090;2023-03-23T03:45:06;6.15;;;4.07;;
75847;SDS011;65750;47.540;19.090;2023-03-23T03:47:35;6.40;;;4.05;;
75847;SDS011;65750;47.540;19.090;2023-03-23T03:50:02;7.72;;;4.20;;
75847;SDS011;65750;47.540;19.090;2023-03-23T03:52:31;5.70;;;3.83;;
75847;SDS011;65750;47.540;19.090;2023-03-23T03:55:00;6.97;;;3.83;;
75847;SDS011;65750;47.540;19.090;2023-03-23T03:57:27;6.35;;;4.00;;
75847;SDS011;65750;47.540;19.090;2023-03-23T03:59:58;8.23;;;4.25;;
75847;SDS011;65750;47.540;19.090;2023-03-23T04:02:27;6.37;;;4.30;;
75847;SDS011;65750;47.540;19.090;2023-03-23T04:04:55;6.60;;;4.05;;
75847;SDS011;65750;47.540;19.090;2023-03-23T04:07:22;7.00;;;3.80;;
75847;SDS011;65750;47.540;19.090;2023-03-23T04:09:51;6.12;;;3.87;;
75847;SDS011;65750;47.540;19.090;2023-03-23T04:12:20;6.10;;;3.55;;
75847;SDS011;65750;47.540;19.090;2023-03-23T04:14:50;6.45;;;4.00;;
75847;SDS011;65750;47.540;19.090;2023-03-23T04:17:18;6.62;;;4.00;;
75847;SDS011;65750;47.540;19.090;2023-03-23T04:19:45;5.83;;;3.83;;
75847;SDS011;65750;47.540;19.090;2023-03-23T04:22:13;6.90;;;3.97;;
75847;SDS011;65750;47.540;19.090;2023-03-23T04:24:42;7.12;;;4.00;;
75847;SDS011;65750;47.540;19.090;2023-03-23T04:27:10;7.30;;;4.22;;
75847;SDS011;65750;47.540;19.090;2023-03-23T04:29:40;7.80;;;3.83;;
75847;SDS011;65750;47.540;19.090;2023-03-23T04:32:09;6.93;;;3.63;;
75847;SDS011;65750;47.540;19.090;2023-03-23T04:34:36;6.85;;;4.03;;
75847;SDS011;65750;47.540;19.090;2023-03-23T04:37:04;7.53;;;4.00;;
75847;SDS011;65750;47.540;19.090;2023-03-23T04:39:31;6.28;;;3.87;;
75847;SDS011;65750;47.540;19.090;2023-03-23T04:41:59;6.95;;;4.10;;
75847;SDS011;65750;47.540;19.090;2023-03-23T04:44:29;6.70;;;4.40;;
75847;SDS011;65750;47.540;19.090;2023-03-23T04:47:01;6.78;;;4.10;;
75847;SDS011;65750;47.540;19.090;2023-03-23T04:49:30;6.15;;;3.92;;
75847;SDS011;65750;47.540;19.090;2023-03-23T04:51:57;6.25;;;4.05;;
75847;SDS011;65750;47.540;19.090;2023-03-23T04:54:25;6.25;;;4.07;;
75847;SDS011;65750;47.540;19.090;2023-03-23T04:56:54;7.07;;;3.80;;
75847;SDS011;65750;47.540;19.090;2023-03-23T04:59:23;6.32;;;4.45;;
75847;SDS011;65750;47.540;19.090;2023-03-23T05:01:53;5.78;;;3.92;;
75847;SDS011;65750;47.540;19.090;2023-03-23T05:04:24;6.22;;;4.03;;
75847;SDS011;65750;47.540;19.090;2023-03-23T05:06:52;6.55;;;4.12;;
75847;SDS011;65750;47.540;19.090;2023-03-23T05:09:19;5.47;;;3.63;;
75847;SDS011;65750;47.540;19.090;2023-03-23T05:11:47;6.62;;;4.40;;
75847;SDS011;65750;47.540;19.090;2023-03-23T05:14:14;6.62;;;4.18;;
75847;SDS011;65750;47.540;19.090;2023-03-23T05:16:42;6.65;;;3.92;;
75847;SDS011;65750;47.540;19.090;2023-03-23T05:19:14;6.55;;;4.25;;
75847;SDS011;65750;47.540;19.090;2023-03-23T05:21:44;6.33;;;4.20;;
75847;SDS011;65750;47.540;19.090;2023-03-23T05:24:11;7.22;;;4.30;;
75847;SDS011;65750;47.540;19.090;2023-03-23T05:26:39;6.47;;;4.18;;
75847;SDS011;65750;47.540;19.090;2023-03-23T05:29:08;7.28;;;4.30;;
75847;SDS011;65750;47.540;19.090;2023-03-23T05:31:37;6.70;;;3.90;;
75847;SDS011;65750;47.540;19.090;2023-03-23T05:34:05;6.63;;;4.27;;
75847;SDS011;65750;47.540;19.090;2023-03-23T05:36:33;6.45;;;4.30;;
75847;SDS011;65750;47.540;19.090;2023-03-23T05:39:02;6.93;;;4.20;;
75847;SDS011;65750;47.540;19.090;2023-03-23T05:41:31;6.05;;;4.03;;
75847;SDS011;65750;47.540;19.090;2023-03-23T05:44:00;6.20;;;3.75;;
75847;SDS011;65750;47.540;19.090;2023-03-23T05:46:28;7.03;;;4.43;;
75847;SDS011;65750;47.540;19.090;2023-03-23T05:48:56;6.90;;;4.20;;
75847;SDS011;65750;47.540;19.090;2023-03-23T05:51:28;7.55;;;4.20;;
75847;SDS011;65750;47.540;19.090;2023-03-23T05:53:55;6.93;;;4.60;;
75847;SDS011;65750;47.540;19.090;2023-03-23T05:56:24;7.45;;;4.78;;
75847;SDS011;65750;47.540;19.090;2023-03-23T05:58:53;6.97;;;4.27;;
75847;SDS011;65750;47.540;19.090;2023-03-23T06:01:21;7.20;;;4.20;;
75847;SDS011;65750;47.540;19.090;2023-03-23T06:03:49;7.10;;;4.18;;
75847;SDS011;65750;47.540;19.090;2023-03-23T06:06:19;8.93;;;4.53;;
75847;SDS011;65750;47.540;19.090;2023-03-23T06:08:47;6.18;;;4.15;;
75847;SDS011;65750;47.540;19.090;2023-03-23T06:11:16;8.23;;;4.77;;
75847;SDS011;65750;47.540;19.090;2023-03-23T06:13:46;7.22;;;4.43;;
75847;SDS011;65750;47.540;19.090;2023-03-23T06:16:13;7.47;;;4.25;;
75847;SDS011;65750;47.540;19.090;2023-03-23T06:18:44;6.35;;;4.20;;
75847;SDS011;65750;47.540;19.090;2023-03-23T06:21:12;7.30;;;4.60;;
75847;SDS011;65750;47.540;19.090;2023-03-23T06:23:40;7.53;;;4.63;;
75847;SDS011;65750;47.540;19.090;2023-03-23T06:26:09;6.53;;;4.05;;
75847;SDS011;65750;47.540;19.090;2023-03-23T06:28:37;8.13;;;4.90;;
75847;SDS011;65750;47.540;19.090;2023-03-23T06:31:06;8.43;;;4.87;;
75847;SDS011;65750;47.540;19.090;2023-03-23T06:33:34;8.00;;;4.72;;
75847;SDS011;65750;47.540;19.090;2023-03-23T06:36:03;6.80;;;4.63;;
75847;SDS011;65750;47.540;19.090;2023-03-23T06:38:31;9.82;;;4.90;;
75847;SDS011;65750;47.540;19.090;2023-03-23T06:40:58;8.18;;;4.70;;
75847;SDS011;65750;47.540;19.090;2023-03-23T06:43:26;7.43;;;4.50;;
75847;SDS011;65750;47.540;19.090;2023-03-23T06:45:53;8.45;;;5.12;;
75847;SDS011;65750;47.540;19.090;2023-03-23T06:48:24;8.03;;;4.37;;
75847;SDS011;65750;47.540;19.090;2023-03-23T06:50:51;8.63;;;4.60;;
75847;SDS011;65750;47.540;19.090;2023-03-23T06:53:19;7.78;;;4.55;;
75847;SDS011;65750;47.540;19.090;2023-03-23T06:55:47;8.27;;;4.97;;
75847;SDS011;65750;47.540;19.090;2023-03-23T06:58:14;9.45;;;5.25;;
75847;SDS011;65750;47.540;19.090;2023-03-23T07:00:41;22.77;;;7.13;;
75847;SDS011;65750;47.540;19.090;2023-03-23T07:03:10;13.75;;;5.50;;
75847;SDS011;65750;47.540;19.090;2023-03-23T07:05:39;13.20;;;5.95;;
75847;SDS011;65750;47.540;19.090;2023-03-23T07:08:06;10.00;;;5.50;;
75847;SDS011;65750;47.540;19.090;2023-03-23T07:10:34;11.02;;;5.60;;
75847;SDS011;65750;47.540;19.090;2023-03-23T07:13:02;11.70;;;5.70;;
75847;SDS011;65750;47.540;19.090;2023-03-23T07:15:30;10.10;;;5.05;;
75847;SDS011;65750;47.540;19.090;2023-03-23T07:17:58;12.18;;;5.05;;
75847;SDS011;65750;47.540;19.090;2023-03-23T07:20:26;13.32;;;5.72;;
75847;SDS011;65750;47.540;19.090;2023-03-23T07:22:54;10.00;;;6.07;;
75847;SDS011;65750;47.540;19.090;2023-03-23T07:25:22;11.87;;;6.60;;
75847;SDS011;65750;47.540;19.090;2023-03-23T07:27:49;10.48;;;7.22;;
75847;SDS011;65750;47.540;19.090;2023-03-23T07:30:17;15.85;;;7.70;;
75847;SDS011;65750;47.540;19.090;2023-03-23T07:32:45;11.93;;;6.90;;
75847;SDS011;65750;47.540;19.090;2023-03-23T07:35:13;13.40;;;7.97;;
75847;SDS011;65750;47.540;19.090;2023-03-23T07:37:40;13.87;;;7.83;;
75847;SDS011;65750;47.540;19.090;2023-03-23T07:40:10;15.02;;;7.90;;
75847;SDS011;65750;47.540;19.090;2023-03-23T07:42:41;12.68;;;7.57;;
75847;SDS011;65750;47.540;19.090;2023-03-23T07:45:13;20.50;;;8.55;;
75847;SDS011;65750;47.540;19.090;2023-03-23T07:47:40;13.98;;;8.35;;
75847;SDS011;65750;47.540;19.090;2023-03-23T07:50:09;16.80;;;8.30;;
75847;SDS011;65750;47.540;19.090;2023-03-23T07:52:37;15.02;;;8.30;;
75847;SDS011;65750;47.540;19.090;2023-03-23T07:55:05;16.77;;;7.45;;
75847;SDS011;65750;47.540;19.090;2023-03-23T07:57:35;36.60;;;10.32;;
75847;SDS011;65750;47.540;19.090;2023-03-23T08:00:04;34.90;;;10.50;;
75847;SDS011;65750;47.540;19.090;2023-03-23T08:02:41;28.23;;;9.47;;
75847;SDS011;65750;47.540;19.090;2023-03-23T08:05:09;30.77;;;9.52;;
75847;SDS011;65750;47.540;19.090;2023-03-23T08:07:39;25.50;;;8.75;;
75847;SDS011;65750;47.540;19.090;2023-03-23T08:10:08;24.73;;;8.50;;
75847;SDS011;65750;47.540;19.090;2023-03-23T08:12:39;29.92;;;8.80;;
75847;SDS011;65750;47.540;19.090;2023-03-23T08:15:09;28.37;;;8.83;;
75847;SDS011;65750;47.540;19.090;2023-03-23T08:17:39;22.48;;;8.02;;
75847;SDS011;65750;47.540;19.090;2023-03-23T08:20:08;26.67;;;8.18;;
75847;SDS011;65750;47.540;19.090;2023-03-23T08:22:38;25.15;;;8.30;;
75847;SDS011;65750;47.540;19.090;2023-03-23T08:25:08;28.27;;;8.25;;
75847;SDS011;65750;47.540;19.090;2023-03-23T08:27:36;21.50;;;7.60;;
75847;SDS011;65750;47.540;19.090;2023-03-23T08:30:09;23.75;;;7.32;;
75847;SDS011;65750;47.540;19.090;2023-03-23T08:32:39;21.45;;;7.90;;
75847;SDS011;65750;47.540;19.090;2023-03-23T08:35:07;25.30;;;7.68;;
75847;SDS011;65750;47.540;19.090;2023-03-23T08:37:37;24.05;;;7.30;;
75847;SDS011;65750;47.540;19.090;2023-03-23T08:40:09;23.10;;;8.63;;
75847;SDS011;65750;47.540;19.090;2023-03-23T08:42:42;16.08;;;7.03;;
75847;SDS011;65750;47.540;19.090;2023-03-23T08:45:11;17.65;;;7.05;;
75847;SDS011;65750;47.540;19.090;2023-03-23T08:47:42;17.33;;;6.80;;
75847;SDS011;65750;47.540;19.090;2023-03-23T08:50:12;20.10;;;7.10;;
75847;SDS011;65750;47.540;19.090;2023-03-23T08:52:41;21.33;;;7.67;;
75847;SDS011;65750;47.540;19.090;2023-03-23T08:55:09;17.23;;;7.22;;
75847;SDS011;65750;47.540;19.090;2023-03-23T08:57:36;16.85;;;6.80;;
75847;SDS011;65750;47.540;19.090;2023-03-23T09:00:07;15.48;;;6.68;;
75847;SDS011;65750;47.540;19.090;2023-03-23T09:02:41;19.42;;;7.10;;
75847;SDS011;65750;47.540;19.090;2023-03-23T09:05:11;21.77;;;7.00;;
75847;SDS011;65750;47.540;19.090;2023-03-23T09:07:39;18.60;;;7.43;;
75847;SDS011;65750;47.540;19.090;2023-03-23T09:10:07;16.37;;;6.93;;
75847;SDS011;65750;47.540;19.090;2023-03-23T09:12:36;19.50;;;7.40;;
75847;SDS011;65750;47.540;19.090;2023-03-23T09:15:03;12.98;;;6.62;;
75847;SDS011;65750;47.540;19.090;2023-03-23T09:17:35;17.93;;;6.97;;
75847;SDS011;65750;47.540;19.090;2023-03-23T09:20:03;16.42;;;6.57;;
75847;SDS011;65750;47.540;19.090;2023-03-23T09:22:36;18.30;;;6.95;;
75847;SDS011;65750;47.540;19.090;2023-03-23T09:25:04;15.20;;;6.35;;
75847;SDS011;65750;47.540;19.090;2023-03-23T09:27:32;15.75;;;6.45;;
75847;SDS011;65750;47.540;19.090;2023-03-23T09:29:59;17.47;;;6.83;;
75847;SDS011;65750;47.540;19.090;2023-03-23T09:32:27;13.77;;;6.62;;
75847;SDS011;65750;47.540;19.090;2023-03-23T09:34:56;14.75;;;6.37;;
75847;SDS011;65750;47.540;19.090;2023-03-23T09:37:23;16.27;;;6.40;;
75847;SDS011;65750;47.540;19.090;2023-03-23T09:39:50;16.77;;;6.97;;
75847;SDS011;65750;47.540;19.090;2023-03-23T09:42:22;16.00;;;6.37;;
75847;SDS011;65750;47.540;19.090;2023-03-23T09:45:02;16.05;;;6.78;;
75847;SDS011;65750;47.540;19.090;2023-03-23T09:47:37;14.02;;;5.45;;
75847;SDS011;65750;47.540;19.090;2023-03-23T09:50:10;11.52;;;6.15;;
75847;SDS011;65750;47.540;19.090;2023-03-23T09:52:41;14.13;;;5.97;;
75847;SDS011;65750;47.540;19.090;2023-03-23T09:55:11;15.00;;;6.27;;
75847;SDS011;65750;47.540;19.090;2023-03-23T09:57:43;11.68;;;5.68;;
75847;SDS011;65750;47.540;19.090;2023-03-23T10:00:15;11.00;;;6.18;;
75847;SDS011;65750;47.540;19.090;2023-03-23T10:02:47;15.15;;;6.25;;
75847;SDS011;65750;47.540;19.090;2023-03-23T10:05:23;13.70;;;5.70;;
75847;SDS011;65750;47.540;19.090;2023-03-23T10:07:59;15.93;;;7.27;;
75847;SDS011;65750;47.540;19.090;2023-03-23T10:10:29;16.10;;;7.57;;
75847;SDS011;65750;47.540;19.090;2023-03-23T10:13:11;11.65;;;7.70;;
75847;SDS011;65750;47.540;19.090;2023-03-23T10:15:42;13.15;;;7.15;;
75847;SDS011;65750;47.540;19.090;2023-03-23T10:18:12;14.82;;;7.65;;
75847;SDS011;65750;47.540;19.090;2023-03-23T10:20:45;11.63;;;7.17;;
75847;SDS011;65750;47.540;19.090;2023-03-23T10:23:31;13.95;;;7.03;;
75847;SDS011;65750;47.540;19.090;2023-03-23T10:26:09;11.63;;;6.47;;
75847;SDS011;65750;47.540;19.090;2023-03-23T10:28:43;15.00;;;7.03;;
75847;SDS011;65750;47.540;19.090;2023-03-23T10:31:11;20.98;;;6.70;;
75847;SDS011;65750;47.540;19.090;2023-03-23T10:33:40;10.90;;;6.40;;
75847;SDS011;65750;47.540;19.090;2023-03-23T10:36:12;13.32;;;7.70;;
75847;SDS011;65750;47.540;19.090;2023-03-23T10:38:43;13.23;;;6.82;;
75847;SDS011;65750;47.540;19.090;2023-03-23T10:41:13;12.82;;;6.40;;
75847;SDS011;65750;47.540;19.090;2023-03-23T10:43:42;16.05;;;7.05;;
75847;SDS011;65750;47.540;19.090;2023-03-23T10:46:13;14.87;;;7.83;;
75847;SDS011;65750;47.540;19.090;2023-03-23T10:48:56;14.25;;;8.77;;
75847;SDS011;65750;47.540;19.090;2023-03-23T10:51:28;13.25;;;8.75;;
75847;SDS011;65750;47.540;19.090;2023-03-23T10:54:02;15.63;;;9.35;;
75847;SDS011;65750;47.540;19.090;2023-03-23T10:56:34;16.50;;;8.38;;
75847;SDS011;65750;47.540;19.090;2023-03-23T10:59:13;12.80;;;7.43;;
75847;SDS011;65750;47.540;19.090;2023-03-23T11:01:47;11.73;;;6.70;;
75847;SDS011;65750;47.540;19.090;2023-03-23T11:04:18;12.37;;;6.78;;
75847;SDS011;65750;47.540;19.090;2023-03-23T11:06:48;11.35;;;6.18;;
75847;SDS011;65750;47.540;19.090;2023-03-23T11:09:16;12.40;;;6.05;;
75847;SDS011;65750;47.540;19.090;2023-03-23T11:11:48;10.50;;;5.80;;
75847;SDS011;65750;47.540;19.090;2023-03-23T11:14:16;12.70;;;6.53;;
75847;SDS011;65750;47.540;19.090;2023-03-23T11:16:46;13.13;;;6.12;;
75847;SDS011;65750;47.540;19.090;2023-03-23T11:19:21;10.48;;;5.35;;
75847;SDS011;65750;47.540;19.090;2023-03-23T11:21:52;11.43;;;5.62;;
75847;SDS011;65750;47.540;19.090;2023-03-23T11:24:21;11.47;;;5.20;;
75847;SDS011;65750;47.540;19.090;2023-03-23T11:26:49;16.87;;;6.43;;
75847;SDS011;65750;47.540;19.090;2023-03-23T11:29:19;18.10;;;6.75;;
75847;SDS011;65750;47.540;19.090;2023-03-23T11:31:48;16.20;;;6.85;;
75847;SDS011;65750;47.540;19.090;2023-03-23T11:34:18;15.10;;;6.57;;
75847;SDS011;65750;47.540;19.090;2023-03-23T11:36:47;14.20;;;6.27;;
75847;SDS011;65750;47.540;19.090;2023-03-23T11:39:24;16.92;;;6.22;;
75847;SDS011;65750;47.540;19.090;2023-03-23T11:41:53;15.77;;;5.93;;
75847;SDS011;65750;47.540;19.090;2023-03-23T11:44:21;11.88;;;6.30;;
75847;SDS011;65750;47.540;19.090;2023-03-23T11:46:52;14.63;;;6.40;;
75847;SDS011;65750;47.540;19.090;2023-03-23T11:49:27;13.50;;;5.93;;
75847;SDS011;65750;47.540;19.090;2023-03-23T11:52:01;15.98;;;6.25;;
75847;SDS011;65750;47.540;19.090;2023-03-23T11:54:33;17.55;;;6.10;;
75847;SDS011;65750;47.540;19.090;2023-03-23T11:57:01;13.50;;;5.60;;
75847;SDS011;65750;47.540;19.090;2023-03-23T11:59:33;15.35;;;6.10;;
75847;SDS011;65750;47.540;19.090;2023-03-23T12:02:04;15.57;;;5.70;;
75847;SDS011;65750;47.540;19.090;2023-03-23T12:04:48;13.90;;;5.57;;
75847;SDS011;65750;47.540;19.090;2023-03-23T12:07:27;14.50;;;5.90;;
75847;SDS011;65750;47.540;19.090;2023-03-23T12:10:10;12.90;;;5.90;;
75847;SDS011;65750;47.540;19.090;2023-03-23T12:12:45;11.07;;;5.90;;
75847;SDS011;65750;47.540;19.090;2023-03-23T12:15:19;11.50;;;5.67;;
75847;SDS011;65750;47.540;19.090;2023-03-23T12:17:53;10.55;;;5.50;;
75847;SDS011;65750;47.540;19.090;2023-03-23T12:20:27;12.13;;;5.20;;
75847;SDS011;65750;47.540;19.090;2023-03-23T12:23:03;13.30;;;5.68;;
75847;SDS011;65750;47.540;19.090;2023-03-23T12:28:57;10.20;;;5.50;;
75847;SDS011;65750;47.540;19.090;2023-03-23T12:31:31;9.98;;;5.20;;
75847;SDS011;65750;47.540;19.090;2023-03-23T12:34:04;10.48;;;5.60;;
75847;SDS011;65750;47.540;19.090;2023-03-23T12:36:39;11.18;;;5.40;;
75847;SDS011;65750;47.540;19.090;2023-03-23T12:42:09;9.33;;;5.73;;
75847;SDS011;65750;47.540;19.090;2023-03-23T12:44:43;9.07;;;5.53;;
75847;SDS011;65750;47.540;19.090;2023-03-23T12:47:17;11.12;;;5.72;;
75847;SDS011;65750;47.540;19.090;2023-03-23T12:49:54;10.93;;;6.05;;
75847;SDS011;65750;47.540;19.090;2023-03-23T12:52:25;11.90;;;5.93;;
75847;SDS011;65750;47.540;19.090;2023-03-23T12:54:55;9.53;;;5.20;;
75847;SDS011;65750;47.540;19.090;2023-03-23T12:57:27;9.75;;;5.43;;
75847;SDS011;65750;47.540;19.090;2023-03-23T13:00:07;7.57;;;4.78;;
75847;SDS011;65750;47.540;19.090;2023-03-23T13:02:41;10.82;;;5.47;;
75847;SDS011;65750;47.540;19.090;2023-03-23T13:05:12;13.15;;;5.25;;
75847;SDS011;65750;47.540;19.090;2023-03-23T13:07:55;8.97;;;5.27;;
75847;SDS011;65750;47.540;19.090;2023-03-23T13:10:26;10.02;;;5.62;;
75847;SDS011;65750;47.540;19.090;2023-03-23T13:12:55;9.55;;;5.22;;
75847;SDS011;65750;47.540;19.090;2023-03-23T13:15:27;10.00;;;5.00;;
75847;SDS011;65750;47.540;19.090;2023-03-23T13:18:00;8.80;;;5.20;;
75847;SDS011;65750;47.540;19.090;2023-03-23T13:23:22;9.80;;;5.22;;
75847;SDS011;65750;47.540;19.090;2023-03-23T13:25:51;9.00;;;5.18;;
75847;SDS011;65750;47.540;19.090;2023-03-23T13:28:22;10.63;;;4.87;;
75847;SDS011;65750;47.540;19.090;2023-03-23T13:30:56;10.13;;;5.07;;
75847;SDS011;65750;47.540;19.090;2023-03-23T13:33:26;12.77;;;5.00;;
75847;SDS011;65750;47.540;19.090;2023-03-23T13:35:56;9.85;;;5.05;;
75847;SDS011;65750;47.540;19.090;2023-03-23T13:38:24;11.35;;;5.37;;
75847;SDS011;65750;47.540;19.090;2023-03-23T13:40:54;10.57;;;4.95;;
75847;SDS011;65750;47.540;19.090;2023-03-23T13:43:25;11.10;;;4.82;;
75847;SDS011;65750;47.540;19.090;2023-03-23T13:46:06;7.97;;;4.80;;
75847;SDS011;65750;47.540;19.090;2023-03-23T13:48:42;9.40;;;4.82;;
75847;SDS011;65750;47.540;19.090;2023-03-23T13:51:25;9.85;;;4.80;;
75847;SDS011;65750;47.540;19.090;2023-03-23T13:54:06;8.57;;;4.68;;
75847;SDS011;65750;47.540;19.090;2023-03-23T13:56:41;8.93;;;4.37;;
75847;SDS011;65750;47.540;19.090;2023-03-23T13:59:12;9.67;;;5.23;;
75847;SDS011;65750;47.540;19.090;2023-03-23T14:01:42;9.80;;;5.10;;
75847;SDS011;65750;47.540;19.090;2023-03-23T14:04:12;9.60;;;5.00;;
75847;SDS011;65750;47.540;19.090;2023-03-23T14:06:43;7.97;;;4.47;;
75847;SDS011;65750;47.540;19.090;2023-03-23T14:09:13;7.20;;;4.70;;
75847;SDS011;65750;47.540;19.090;2023-03-23T14:11:47;8.23;;;4.20;;
75847;SDS011;65750;47.540;19.090;2023-03-23T14:14:19;10.35;;;4.53;;
75847;SDS011;65750;47.540;19.090;2023-03-23T14:16:51;7.55;;;4.12;;
75847;SDS011;65750;47.540;19.090;2023-03-23T14:19:21;9.43;;;4.60;;
75847;SDS011;65750;47.540;19.090;2023-03-23T14:21:51;8.23;;;4.05;;
75847;SDS011;65750;47.540;19.090;2023-03-23T14:24:21;7.53;;;4.37;;
75847;SDS011;65750;47.540;19.090;2023-03-23T14:26:50;7.25;;;4.43;;
75847;SDS011;65750;47.540;19.090;2023-03-23T14:29:19;6.65;;;3.87;;
75847;SDS011;65750;47.540;19.090;2023-03-23T14:31:49;7.22;;;4.43;;
75847;SDS011;65750;47.540;19.090;2023-03-23T14:34:24;7.15;;;4.60;;
75847;SDS011;65750;47.540;19.090;2023-03-23T14:36:52;7.90;;;3.90;;
75847;SDS011;65750;47.540;19.090;2023-03-23T14:39:22;8.15;;;4.43;;
75847;SDS011;65750;47.540;19.090;2023-03-23T14:41:53;8.35;;;4.40;;
75847;SDS011;65750;47.540;19.090;2023-03-23T14:44:22;9.98;;;4.65;;
75847;SDS011;65750;47.540;19.090;2023-03-23T14:46:55;6.72;;;3.72;;
75847;SDS011;65750;47.540;19.090;2023-03-23T14:49:28;6.80;;;4.03;;
75847;SDS011;65750;47.540;19.090;2023-03-23T14:52:10;7.55;;;4.15;;
75847;SDS011;65750;47.540;19.090;2023-03-23T14:54:43;7.53;;;4.10;;
75847;SDS011;65750;47.540;19.090;2023-03-23T14:57:12;7.60;;;4.40;;
75847;SDS011;65750;47.540;19.090;2023-03-23T14:59:41;6.90;;;4.18;;
75847;SDS011;65750;47.540;19.090;2023-03-23T15:02:14;6.60;;;4.10;;
75847;SDS011;65750;47.540;19.090;2023-03-23T15:04:47;6.72;;;4.35;;